Alpine Meadows, CA

11:48 AM PDT on October 24, 2014 (GMT -0700)
Rocky Ridge | Change Station
CLOSE
Current Station
Personal Weather Station
Location: Tahoe City, CA
Elevation: 6491 ft
Nearby Weather Stations
Active Advisory: Lake Wind Advisory

Elev 6491 ft 39.18 °N, 120.13 °W | Updated 1 second ago

Clear
Clear
69.8 °F
Feels Like 69.8 °F
N
2.0
Wind Variable Wind from East
Gusts 3.0 mph

Today
High -- | Low -- °F
--% Chance of Precip.
Yesterday
High -- | Low -- °F
Precip. -- in
7:19 AM 6:09 PM
New Moon, 1% visible
Pressure 30.14 in
Visibility 10.0 miles
Clouds Clear
Dew Point 29 °F
Humidity 22%
Rainfall 0.00 in
Snow Depth 0 in , 0 in , 0 in
UV 2 out of 12
Pollen 2.80 out of 12
Air Quality Not available.
Flu Activity Sporadic
METAR KTRK 241650Z 22011G18KT 10SM SKC 17/M04 A3014 RMK NOSPECI

More Conditions Fewer Conditions

Pressure 30.14 in
Visibility 10.0 miles
Clouds Clear
Dew Point 29 °F
Humidity 22%
Rainfall 0.00 in
Snow Depth 0 in , 0 in , 0 in
UV 2 out of 12
Pollen 2.80 out of 12
Air Quality Not available.
Flu Activity Sporadic
METAR KTRK 241650Z 22011G18KT 10SM SKC 17/M04 A3014 RMK NOSPECI

More Conditions Fewer Conditions

10-Day Weather Forecast

Almanac

Astronomy

Oct. 24, 2014 Rise Set
Actual Time 7:19 AM PDT 6:09 PM PDT
Civil Twilight 6:52 AM PDT 6:36 PM PDT
Nautical Twilight 6:21 AM PDT 7:07 PM PDT
Astronomical Twilight 5:50 AM PDT 7:38 PM PDT
Moon 8:03 AM PDT 6:53 PM PDT
Length of Visible Light 11h 44m
Length of Day
10h 49m
Tomorrow will be 2m 22s shorter.
New Moon, 1% of the Moon is Illuminated
Today
New Moon
Oct 30
First Quarter
Nov 6
Full
Nov 14
Last Quarter
Nov 22
New

Today's Extremes

State Highs State Lows

Community

WunderPhotos

Upload Photos

1,764,634 photos uploaded!

Nearby

Snow Depth

Station Depth Elevation
Tahoe City Cross 0 in 6750 ft
Squaw Valley 0 in 8200 ft
Ward Creek #3 9 in 6750 ft
Rubicon #2 0 in 7500 ft
Independence Camp 0 in 7000 ft

Earthquake Activity

City Distance Mag. Time & Date
Gerlach-Empire, Nevada 80 miles 2.5 7:16 AM PDT
2014-10-23
Minimum magnitude displayed is 2.5.

Coastal Water Temperatures

Place Temperature
No Stations Reporting

Nearby Weather Stations